createdAt,value
2023-02-14T00:01:57.646Z,3.92
2023-02-14T00:04:44.766Z,4.04
2023-02-14T00:07:31.082Z,4.13
2023-02-14T00:10:16.430Z,4.05
2023-02-14T00:13:01.552Z,4.20
2023-02-14T00:15:46.390Z,4.11
2023-02-14T00:18:50.106Z,4.15
2023-02-14T00:21:37.436Z,3.97
2023-02-14T00:24:25.364Z,3.54
2023-02-14T00:27:10.755Z,3.37
2023-02-14T00:29:58.540Z,3.50
2023-02-14T00:32:43.421Z,3.83
2023-02-14T00:35:28.808Z,3.94
2023-02-14T00:38:13.672Z,3.79
2023-02-14T00:40:59.240Z,3.77
2023-02-14T00:43:44.550Z,3.96
2023-02-14T00:46:29.737Z,3.60
2023-02-14T00:49:15.300Z,3.26
2023-02-14T00:52:00.141Z,3.59
2023-02-14T00:54:45.769Z,3.57
2023-02-14T00:57:30.718Z,3.38
2023-02-14T01:00:16.316Z,3.90
2023-02-14T01:03:01.467Z,3.57
2023-02-14T01:05:48.101Z,3.23
2023-02-14T01:08:33.469Z,3.24
2023-02-14T01:11:21.817Z,3.20
2023-02-14T01:14:06.724Z,2.98
2023-02-14T01:16:51.962Z,2.89
2023-02-14T01:19:38.206Z,3.20
2023-02-14T01:22:23.347Z,3.03
2023-02-14T01:25:08.291Z,3.14
2023-02-14T01:27:53.372Z,3.67
2023-02-14T01:30:39.103Z,3.77
2023-02-14T01:33:24.270Z,3.84
2023-02-14T01:36:19.659Z,3.96
2023-02-14T01:39:12.230Z,3.89
2023-02-14T01:41:57.824Z,3.92
2023-02-14T01:45:05.196Z,3.86
2023-02-14T01:47:54.202Z,3.86
2023-02-14T01:50:42.621Z,3.89
2023-02-14T01:53:28.988Z,3.89
2023-02-14T01:56:21.024Z,3.87
2023-02-14T01:59:10.072Z,3.82
2023-02-14T02:01:55.856Z,3.95
2023-02-14T02:04:46.196Z,4.02
2023-02-14T02:07:31.712Z,3.93
2023-02-14T02:10:17.436Z,3.93
2023-02-14T02:13:06.465Z,3.97
2023-02-14T02:16:19.493Z,4.02
2023-02-14T02:19:23.714Z,4.07
2023-02-14T02:22:30.496Z,3.93
2023-02-14T02:25:50.473Z,3.99
2023-02-14T02:29:08.199Z,3.98
2023-02-14T02:32:32.048Z,3.93
2023-02-14T02:35:41.710Z,3.98
2023-02-14T02:38:45.363Z,3.77
2023-02-14T02:41:48.353Z,4.01
2023-02-14T02:44:42.307Z,4.00
2023-02-14T02:47:53.436Z,4.02
2023-02-14T02:51:02.795Z,3.91
2023-02-14T02:53:55.148Z,3.88
2023-02-14T02:56:53.707Z,3.26
2023-02-14T02:59:43.680Z,3.41
2023-02-14T03:02:33.190Z,3.24
2023-02-14T03:05:18.690Z,3.33
2023-02-14T03:08:05.131Z,3.52
2023-02-14T03:10:49.957Z,3.72
2023-02-14T03:13:48.985Z,3.88
2023-02-14T03:17:08.051Z,3.77
2023-02-14T03:20:16.619Z,3.89
2023-02-14T03:23:30.223Z,3.92
2023-02-14T03:26:20.159Z,3.93
2023-02-14T03:29:31.294Z,3.90
2023-02-14T03:32:31.169Z,3.93
2023-02-14T03:35:31.059Z,3.96
2023-02-14T03:38:30.880Z,3.92
2023-02-14T03:41:22.975Z,3.88
2023-02-14T03:44:11.303Z,3.86
2023-02-14T03:47:02.993Z,3.92
2023-02-14T03:49:53.300Z,3.95
2023-02-14T03:52:40.009Z,3.45
2023-02-14T03:55:35.976Z,3.73
2023-02-14T03:58:30.610Z,3.82
2023-02-14T04:01:23.130Z,3.74
2023-02-14T04:04:10.214Z,3.81
2023-02-14T04:06:55.748Z,3.81
2023-02-14T04:09:40.766Z,3.68
2023-02-14T04:12:37.222Z,3.77
2023-02-14T04:15:22.549Z,3.84
2023-02-14T04:18:27.474Z,3.82
2023-02-14T04:21:12.561Z,3.88
2023-02-14T04:23:57.396Z,3.65
2023-02-14T04:26:53.887Z,3.83
2023-02-14T04:29:48.175Z,3.80
2023-02-14T04:32:32.839Z,3.76
2023-02-14T04:35:18.238Z,3.74
2023-02-14T04:38:04.629Z,3.72
2023-02-14T04:40:50.253Z,3.78
2023-02-14T04:43:35.858Z,3.74
2023-02-14T04:46:20.861Z,3.74
2023-02-14T04:49:06.171Z,3.66
2023-02-14T04:51:51.037Z,3.68
2023-02-14T04:54:36.135Z,3.62
2023-02-14T04:57:20.831Z,3.66
2023-02-14T05:00:07.051Z,3.58
2023-02-14T05:02:52.313Z,3.63
2023-02-14T05:05:38.243Z,3.62
2023-02-14T05:08:23.269Z,3.52
2023-02-14T05:11:08.793Z,3.54
2023-02-14T05:13:54.082Z,3.57
2023-02-14T05:16:39.358Z,3.52
2023-02-14T05:19:24.975Z,3.40
2023-02-14T05:22:10.244Z,3.46
2023-02-14T05:24:54.995Z,3.16
2023-02-14T05:27:39.831Z,2.95
2023-02-14T05:30:27.817Z,3.41
2023-02-14T05:33:13.309Z,3.33
2023-02-14T05:36:00.967Z,3.10
2023-02-14T05:38:45.957Z,3.34
2023-02-14T05:41:31.175Z,3.33
2023-02-14T05:44:16.026Z,3.48
2023-02-14T05:47:00.913Z,3.49
2023-02-14T05:49:46.064Z,3.53
2023-02-14T05:52:30.813Z,3.38
2023-02-14T05:55:16.150Z,3.41
2023-02-14T05:58:01.164Z,3.45
2023-02-14T06:00:46.221Z,3.40
2023-02-14T06:03:31.354Z,3.40
2023-02-14T06:06:16.504Z,3.45
2023-02-14T06:09:01.209Z,3.34
2023-02-14T06:11:46.480Z,3.44
2023-02-14T06:14:31.339Z,3.46
2023-02-14T06:17:16.551Z,3.39
2023-02-14T06:20:02.204Z,3.42
2023-02-14T06:22:47.190Z,3.36
2023-02-14T06:25:32.825Z,3.32
2023-02-14T06:28:18.157Z,3.40
2023-02-14T06:31:03.454Z,3.27
2023-02-14T06:33:48.615Z,3.27
2023-02-14T06:36:33.863Z,3.28
2023-02-14T06:39:19.058Z,3.28
2023-02-14T06:42:04.314Z,3.32
2023-02-14T06:44:49.119Z,3.00
2023-02-14T06:47:35.253Z,3.21
2023-02-14T06:50:19.986Z,3.31
2023-02-14T06:53:06.295Z,3.30
2023-02-14T06:55:51.446Z,3.31
2023-02-14T06:58:36.641Z,3.33
2023-02-14T07:01:22.108Z,3.20
2023-02-14T07:04:07.331Z,3.19
2023-02-14T07:06:52.577Z,3.08
2023-02-14T07:09:37.440Z,2.95
2023-02-14T07:12:22.503Z,3.26
2023-02-14T07:15:09.522Z,3.29
2023-02-14T07:17:54.831Z,2.93
2023-02-14T07:20:39.871Z,2.31
2023-02-14T07:23:25.153Z,1.71
2023-02-14T07:26:10.197Z,1.27
2023-02-14T07:28:55.633Z,1.54
2023-02-14T07:31:40.621Z,2.18
2023-02-14T07:34:27.446Z,1.75
2023-02-14T07:37:12.306Z,1.71
2023-02-14T07:39:57.230Z,1.38
2023-02-14T07:42:43.381Z,1.68
2023-02-14T07:45:28.188Z,1.66
2023-02-14T07:48:13.391Z,1.75
2023-02-14T07:50:58.569Z,1.69
2023-02-14T07:53:44.296Z,1.93
2023-02-14T07:56:29.575Z,1.69
2023-02-14T07:59:14.844Z,1.59
2023-02-14T08:01:59.676Z,1.77
2023-02-14T08:04:44.700Z,1.95
2023-02-14T08:07:29.591Z,1.90
2023-02-14T08:10:15.503Z,1.76
2023-02-14T08:13:00.816Z,1.89
2023-02-14T08:16:04.601Z,2.03
2023-02-14T08:18:49.653Z,1.68
2023-02-14T08:21:34.564Z,1.69
2023-02-14T08:24:19.604Z,1.70
2023-02-14T08:27:04.672Z,1.51
2023-02-14T08:29:49.543Z,1.58
2023-02-14T08:32:34.752Z,1.58
2023-02-14T08:35:19.931Z,1.53
2023-02-14T08:38:05.225Z,1.23
2023-02-14T08:40:50.529Z,1.04
2023-02-14T08:43:35.279Z,1.28
2023-02-14T08:46:20.353Z,1.56
2023-02-14T08:49:05.176Z,1.92
2023-02-14T08:51:50.146Z,1.79
2023-02-14T08:54:35.297Z,1.76
2023-02-14T08:57:20.562Z,1.62
2023-02-14T09:00:06.959Z,1.87
2023-02-14T09:02:53.124Z,1.75
2023-02-14T09:05:38.482Z,1.83
2023-02-14T09:08:23.332Z,2.11
2023-02-14T09:11:10.161Z,2.27
2023-02-14T09:13:55.884Z,2.68
2023-02-14T09:16:44.067Z,2.64
2023-02-14T09:19:28.925Z,2.83
2023-02-14T09:22:14.183Z,2.84
2023-02-14T09:24:59.340Z,3.09
2023-02-14T09:27:44.395Z,3.18
2023-02-14T09:30:29.305Z,3.30
2023-02-14T09:33:14.974Z,3.32
2023-02-14T09:36:18.861Z,3.29
2023-02-14T09:39:04.067Z,3.35
2023-02-14T09:42:15.804Z,3.34
2023-02-14T09:45:05.073Z,3.23
2023-02-14T09:48:08.397Z,3.30
2023-02-14T09:51:00.106Z,3.35
2023-02-14T09:54:09.232Z,3.55
2023-02-14T09:57:13.857Z,3.64
2023-02-14T10:00:16.738Z,3.75
2023-02-14T10:03:24.583Z,3.52
2023-02-14T10:06:15.795Z,3.71
2023-02-14T10:09:22.855Z,3.63
2023-02-14T10:12:19.469Z,3.92
2023-02-14T10:15:14.077Z,4.17
2023-02-14T10:18:09.806Z,4.40
2023-02-14T10:20:59.706Z,4.68
2023-02-14T10:23:57.571Z,5.02
2023-02-14T10:26:42.420Z,5.23
2023-02-14T10:29:28.178Z,5.45
2023-02-14T10:32:15.021Z,5.55
2023-02-14T10:35:06.237Z,5.92
2023-02-14T10:38:30.446Z,6.13
2023-02-14T10:41:48.393Z,6.35
2023-02-14T10:44:42.414Z,6.58
2023-02-14T10:47:54.654Z,6.75
2023-02-14T10:50:48.500Z,6.85
2023-02-14T10:54:01.841Z,6.97
2023-02-14T10:56:58.182Z,7.10
2023-02-14T11:00:01.236Z,7.32
2023-02-14T11:02:50.728Z,7.52
2023-02-14T11:05:40.476Z,7.63
2023-02-14T11:08:33.057Z,7.99
2023-02-14T11:11:37.169Z,8.21
2023-02-14T11:14:28.526Z,8.31
2023-02-14T11:17:31.429Z,8.32
2023-02-14T11:20:22.513Z,8.44
2023-02-14T11:23:21.559Z,8.60
2023-02-14T11:26:12.386Z,8.91
2023-02-14T11:29:00.962Z,8.91
2023-02-14T11:31:46.135Z,8.82
2023-02-14T11:35:05.690Z,8.99
2023-02-14T11:37:53.428Z,9.09
2023-02-14T11:40:40.280Z,9.35
2023-02-14T11:43:36.448Z,9.48
2023-02-14T11:46:21.338Z,9.67
2023-02-14T11:49:24.638Z,9.91
2023-02-14T11:52:11.648Z,10.01
2023-02-14T11:54:57.562Z,10.08
2023-02-14T11:57:42.691Z,10.09
2023-02-14T12:00:34.081Z,10.28
2023-02-14T12:03:19.814Z,10.45
2023-02-14T12:06:06.584Z,10.65
2023-02-14T12:08:52.170Z,10.82
2023-02-14T12:11:37.661Z,10.93
2023-02-14T12:14:24.334Z,10.96
2023-02-14T12:17:29.235Z,11.31
2023-02-14T12:20:17.272Z,11.43
2023-02-14T12:23:15.069Z,11.03
2023-02-14T12:26:14.429Z,11.35
2023-02-14T12:29:26.287Z,11.04
2023-02-14T12:32:33.017Z,10.88
2023-02-14T12:35:41.004Z,10.67
2023-02-14T12:39:05.024Z,10.65
2023-02-14T12:42:28.211Z,10.69
2023-02-14T12:45:32.180Z,10.80
2023-02-14T12:48:38.858Z,10.83
2023-02-14T12:51:34.471Z,10.91
2023-02-14T12:54:46.863Z,10.97
2023-02-14T12:57:54.759Z,11.21
2023-02-14T13:00:59.433Z,11.39
2023-02-14T13:04:03.847Z,11.59
2023-02-14T13:06:57.400Z,12.36
2023-02-14T13:10:12.505Z,12.29
2023-02-14T13:13:48.183Z,12.31
2023-02-14T13:16:33.680Z,12.42
2023-02-14T13:19:43.285Z,12.62
2023-02-14T13:22:31.160Z,12.81
2023-02-14T13:25:33.391Z,13.18
2023-02-14T13:28:19.978Z,12.69
2023-02-14T13:31:05.887Z,13.03
2023-02-14T13:33:56.673Z,13.68
2023-02-14T13:36:44.078Z,13.26
2023-02-14T13:39:38.676Z,14.08
2023-02-14T13:42:52.960Z,14.76
2023-02-14T13:45:41.898Z,13.91
2023-02-14T13:48:29.344Z,13.28
2023-02-14T13:51:14.645Z,11.48
2023-02-14T13:54:00.359Z,10.43
2023-02-14T13:56:45.361Z,9.83
2023-02-14T13:59:36.381Z,9.47
2023-02-14T14:02:29.831Z,9.19
2023-02-14T14:05:30.928Z,8.90
2023-02-14T14:08:26.677Z,8.76
2023-02-14T14:11:11.969Z,8.66
2023-02-14T14:14:02.061Z,8.60
2023-02-14T14:16:58.798Z,8.52
2023-02-14T14:19:46.228Z,8.45
2023-02-14T14:22:31.861Z,8.49
2023-02-14T14:25:37.781Z,8.33
2023-02-14T14:28:25.793Z,8.25
2023-02-14T14:31:13.539Z,8.17
2023-02-14T14:34:01.939Z,8.10
2023-02-14T14:36:47.229Z,8.14
2023-02-14T14:39:34.555Z,8.00
2023-02-14T14:42:22.020Z,7.90
2023-02-14T14:45:19.491Z,7.89
2023-02-14T14:48:12.576Z,7.78
2023-02-14T14:50:59.105Z,7.80
2023-02-14T14:53:51.355Z,7.70
2023-02-14T14:56:50.212Z,7.65
2023-02-14T14:59:40.487Z,7.58
2023-02-14T15:02:27.836Z,7.54
2023-02-14T15:05:27.407Z,7.57
2023-02-14T15:08:35.979Z,7.50
2023-02-14T15:11:47.177Z,7.51
2023-02-14T15:14:36.257Z,7.48
2023-02-14T15:17:27.108Z,7.45
2023-02-14T15:20:17.658Z,7.37
2023-02-14T15:23:05.234Z,7.24
2023-02-14T15:25:51.789Z,7.20
2023-02-14T15:28:38.480Z,7.15
2023-02-14T15:31:27.938Z,6.98
2023-02-14T15:34:14.640Z,7.06
2023-02-14T15:37:05.940Z,6.92
2023-02-14T15:39:56.827Z,6.96
2023-02-14T15:42:44.587Z,6.80
2023-02-14T15:45:31.234Z,6.71
2023-02-14T15:48:22.144Z,6.58
2023-02-14T15:51:15.576Z,6.56
2023-02-14T15:54:03.751Z,6.43
2023-02-14T15:56:52.491Z,6.40
2023-02-14T15:59:42.803Z,6.46
2023-02-14T16:02:33.262Z,6.31
2023-02-14T16:05:20.897Z,6.20
2023-02-14T16:08:22.909Z,6.16
2023-02-14T16:11:40.706Z,5.98
2023-02-14T16:14:35.803Z,6.04
2023-02-14T16:17:32.617Z,5.84
2023-02-14T16:20:21.511Z,5.78
2023-02-14T16:23:25.701Z,5.62
2023-02-14T16:26:11.885Z,5.56
2023-02-14T16:28:56.722Z,5.48
2023-02-14T16:35:00.406Z,5.37
2023-02-14T16:37:47.324Z,5.25
2023-02-14T16:40:32.328Z,5.25
2023-02-14T16:43:18.976Z,5.19
2023-02-14T16:46:03.923Z,5.07
2023-02-14T16:48:53.027Z,5.05
2023-02-14T16:51:43.121Z,4.96
2023-02-14T16:54:28.485Z,5.00
2023-02-14T16:57:20.601Z,4.98
2023-02-14T17:00:07.141Z,4.91
2023-02-14T17:02:53.971Z,4.97
2023-02-14T17:05:42.017Z,4.85
2023-02-14T17:08:28.166Z,4.81
2023-02-14T17:11:13.488Z,4.77
2023-02-14T17:13:58.633Z,4.65
2023-02-14T17:16:43.866Z,4.71
2023-02-14T17:19:28.982Z,4.66
2023-02-14T17:22:14.592Z,4.59
2023-02-14T17:24:59.611Z,4.61
2023-02-14T17:27:46.186Z,4.49
2023-02-14T17:30:31.489Z,4.63
2023-02-14T17:33:16.539Z,4.59
2023-02-14T17:36:13.129Z,4.69
2023-02-14T17:38:57.998Z,4.63
2023-02-14T17:41:43.295Z,4.60
2023-02-14T17:44:32.873Z,4.53
2023-02-14T17:47:18.356Z,4.50
2023-02-14T17:50:04.153Z,4.40
2023-02-14T17:52:53.597Z,4.47
2023-02-14T17:55:38.966Z,4.55
2023-02-14T17:58:26.425Z,4.49
2023-02-14T18:01:12.699Z,4.57
2023-02-14T18:03:59.199Z,4.21
2023-02-14T18:06:45.121Z,4.28
2023-02-14T18:09:30.332Z,4.13
2023-02-14T18:12:15.982Z,4.28
2023-02-14T18:15:00.801Z,4.28
2023-02-14T18:17:49.738Z,4.04
2023-02-14T18:20:35.064Z,4.20
2023-02-14T18:23:22.082Z,4.29
2023-02-14T18:26:11.878Z,4.26
2023-02-14T18:28:59.693Z,4.19
2023-02-14T18:31:45.370Z,4.29
2023-02-14T18:34:34.016Z,4.21
2023-02-14T18:37:21.422Z,4.28
2023-02-14T18:40:11.174Z,4.28
2023-02-14T18:42:56.145Z,4.24
2023-02-14T18:45:41.020Z,4.27
2023-02-14T18:48:27.629Z,4.03
2023-02-14T18:51:34.575Z,4.21
2023-02-14T18:54:19.794Z,4.30
2023-02-14T18:57:04.546Z,4.43
2023-02-14T18:59:49.561Z,4.52
2023-02-14T19:02:36.028Z,4.43
2023-02-14T19:05:21.253Z,4.28
2023-02-14T19:08:08.512Z,4.07
2023-02-14T19:10:55.124Z,3.91
2023-02-14T19:13:46.348Z,4.17
2023-02-14T19:16:33.665Z,4.14
2023-02-14T19:19:19.819Z,4.05
2023-02-14T19:22:07.659Z,4.31
2023-02-14T19:24:54.015Z,4.44
2023-02-14T19:27:40.433Z,4.43
2023-02-14T19:30:26.881Z,4.46
2023-02-14T19:33:11.864Z,4.39
2023-02-14T19:36:02.938Z,4.29
2023-02-14T19:38:53.276Z,4.44
2023-02-14T19:41:38.956Z,4.43
2023-02-14T19:44:25.723Z,4.53
2023-02-14T19:47:26.871Z,4.52
2023-02-14T19:50:17.054Z,4.49
2023-02-14T19:53:02.512Z,4.56
2023-02-14T19:55:54.175Z,4.52
2023-02-14T19:58:45.190Z,4.42
2023-02-14T20:01:33.374Z,4.13
2023-02-14T20:04:27.758Z,4.20
2023-02-14T20:07:16.045Z,4.34
2023-02-14T20:10:01.476Z,4.41
2023-02-14T20:12:46.773Z,4.33
2023-02-14T20:15:35.129Z,4.38
2023-02-14T20:18:20.417Z,4.27
2023-02-14T20:21:05.545Z,4.33
2023-02-14T20:23:52.735Z,4.38
2023-02-14T20:26:43.065Z,4.43
2023-02-14T20:29:32.412Z,4.48
2023-02-14T20:32:19.015Z,4.32
2023-02-14T20:35:06.184Z,4.33
2023-02-14T20:37:52.415Z,4.15
2023-02-14T20:40:39.952Z,3.62
2023-02-14T20:43:26.306Z,3.31
2023-02-14T20:46:14.495Z,3.17
2023-02-14T20:48:59.856Z,3.10
2023-02-14T20:51:47.953Z,3.04
2023-02-14T20:54:41.975Z,3.00
2023-02-14T20:57:30.748Z,3.02
2023-02-14T21:00:20.085Z,3.08
2023-02-14T21:03:06.527Z,3.00
2023-02-14T21:05:51.522Z,3.00
2023-02-14T21:08:37.383Z,3.04
2023-02-14T21:11:24.181Z,2.96
2023-02-14T21:14:12.281Z,3.03
2023-02-14T21:16:57.445Z,3.23
2023-02-14T21:19:42.872Z,3.08
2023-02-14T21:22:27.856Z,3.45
2023-02-14T21:25:15.712Z,3.38
2023-02-14T21:28:01.296Z,3.53
2023-02-14T21:30:46.362Z,3.47
2023-02-14T21:33:35.640Z,3.67
2023-02-14T21:36:22.891Z,4.01
2023-02-14T21:39:09.643Z,3.85
2023-02-14T21:41:56.224Z,3.98
2023-02-14T21:44:59.726Z,4.09
2023-02-14T21:48:04.982Z,4.18
2023-02-14T21:50:49.977Z,4.25
2023-02-14T21:53:35.119Z,4.16
2023-02-14T21:56:22.062Z,3.55
2023-02-14T21:59:07.501Z,3.48
2023-02-14T22:01:53.439Z,3.75
2023-02-14T22:04:40.805Z,3.90
2023-02-14T22:07:29.093Z,3.86
2023-02-14T22:10:13.964Z,4.02
2023-02-14T22:12:58.626Z,4.19
2023-02-14T22:15:43.468Z,3.93
2023-02-14T22:18:28.948Z,4.02
2023-02-14T22:21:17.698Z,3.57
2023-02-14T22:24:03.802Z,3.35
2023-02-14T22:26:48.907Z,3.45
2023-02-14T22:29:33.937Z,3.40
2023-02-14T22:32:20.210Z,3.78
2023-02-14T22:35:05.884Z,3.79
2023-02-14T22:37:51.023Z,3.76
2023-02-14T22:40:36.285Z,3.07
2023-02-14T22:43:22.414Z,2.91
2023-02-14T22:46:10.249Z,3.24
2023-02-14T22:48:56.354Z,3.03
2023-02-14T22:51:42.157Z,2.82
2023-02-14T22:54:27.337Z,2.42
2023-02-14T22:57:12.051Z,2.16
2023-02-14T22:59:57.920Z,1.95
2023-02-14T23:02:42.706Z,1.88
2023-02-14T23:05:27.680Z,2.20
2023-02-14T23:08:12.637Z,2.14
2023-02-14T23:10:57.446Z,2.63
2023-02-14T23:14:01.860Z,2.63
2023-02-14T23:17:05.673Z,2.48
2023-02-14T23:20:09.435Z,1.97
2023-02-14T23:22:54.580Z,1.96
2023-02-14T23:25:43.396Z,2.12
2023-02-14T23:28:28.301Z,1.86
2023-02-14T23:31:13.231Z,1.89
2023-02-14T23:33:58.020Z,1.81
2023-02-14T23:36:43.049Z,1.91
2023-02-14T23:39:28.467Z,1.52
2023-02-14T23:42:14.713Z,1.60
2023-02-14T23:45:20.181Z,1.75
2023-02-14T23:48:05.480Z,2.15
2023-02-14T23:50:51.455Z,1.78
2023-02-14T23:53:36.456Z,1.75
2023-02-14T23:56:21.477Z,2.07
2023-02-14T23:59:07.673Z,2.09
